sensor_id;sensor_type;location;lat;lon;timestamp;temperature;humidity
42201;DHT22;27869;51.442;7.540;2022-07-23T00:01:37;17.20;99.90
42201;DHT22;27869;51.442;7.540;2022-07-23T00:04:04;17.10;99.90
42201;DHT22;27869;51.442;7.540;2022-07-23T00:06:31;17.10;99.90
42201;DHT22;27869;51.442;7.540;2022-07-23T00:08:58;17.10;99.90
42201;DHT22;27869;51.442;7.540;2022-07-23T00:11:25;17.10;99.90
42201;DHT22;27869;51.442;7.540;2022-07-23T00:13:52;17.00;99.90
42201;DHT22;27869;51.442;7.540;2022-07-23T00:16:21;17.00;99.90
42201;DHT22;27869;51.442;7.540;2022-07-23T00:18:48;17.00;99.90
42201;DHT22;27869;51.442;7.540;2022-07-23T00:21:15;17.00;99.90
42201;DHT22;27869;51.442;7.540;2022-07-23T00:23:42;16.90;99.90
42201;DHT22;27869;51.442;7.540;2022-07-23T00:26:09;16.90;99.90
42201;DHT22;27869;51.442;7.540;2022-07-23T00:28:36;16.90;99.90
42201;DHT22;27869;51.442;7.540;2022-07-23T00:31:03;17.00;99.90
42201;DHT22;27869;51.442;7.540;2022-07-23T00:33:31;17.00;99.90
42201;DHT22;27869;51.442;7.540;2022-07-23T00:35:58;16.90;99.90
42201;DHT22;27869;51.442;7.540;2022-07-23T00:38:25;16.90;99.90
42201;DHT22;27869;51.442;7.540;2022-07-23T00:40:52;16.90;99.90
42201;DHT22;27869;51.442;7.540;2022-07-23T00:43:20;16.90;99.90
42201;DHT22;27869;51.442;7.540;2022-07-23T00:45:47;16.90;99.90
42201;DHT22;27869;51.442;7.540;2022-07-23T00:48:14;16.80;99.90
42201;DHT22;27869;51.442;7.540;2022-07-23T00:50:43;16.80;99.90
42201;DHT22;27869;51.442;7.540;2022-07-23T00:53:10;16.80;99.90
42201;DHT22;27869;51.442;7.540;2022-07-23T00:55:38;16.80;99.90
42201;DHT22;27869;51.442;7.540;2022-07-23T00:58:05;16.80;99.90
42201;DHT22;27869;51.442;7.540;2022-07-23T01:00:33;16.80;99.90
42201;DHT22;27869;51.442;7.540;2022-07-23T01:02:59;16.80;99.90
42201;DHT22;27869;51.442;7.540;2022-07-23T01:05:26;16.80;99.90
42201;DHT22;27869;51.442;7.540;2022-07-23T01:07:55;16.80;99.90
42201;DHT22;27869;51.442;7.540;2022-07-23T01:10:22;16.80;99.90
42201;DHT22;27869;51.442;7.540;2022-07-23T01:12:58;16.80;99.90
42201;DHT22;27869;51.442;7.540;2022-07-23T01:15:26;16.80;99.90
42201;DHT22;27869;51.442;7.540;2022-07-23T01:17:53;16.70;99.90
42201;DHT22;27869;51.442;7.540;2022-07-23T01:20:20;16.70;99.90
42201;DHT22;27869;51.442;7.540;2022-07-23T01:22:49;16.70;99.90
42201;DHT22;27869;51.442;7.540;2022-07-23T01:25:15;16.70;99.90
42201;DHT22;27869;51.442;7.540;2022-07-23T01:27:42;16.70;99.90
42201;DHT22;27869;51.442;7.540;2022-07-23T01:30:10;16.70;99.90
42201;DHT22;27869;51.442;7.540;2022-07-23T01:32:38;16.70;99.90
42201;DHT22;27869;51.442;7.540;2022-07-23T01:35:06;16.60;99.90
42201;DHT22;27869;51.442;7.540;2022-07-23T01:37:33;16.60;99.90
42201;DHT22;27869;51.442;7.540;2022-07-23T01:40:02;16.60;99.90
42201;DHT22;27869;51.442;7.540;2022-07-23T01:42:29;16.60;99.90
42201;DHT22;27869;51.442;7.540;2022-07-23T01:44:56;16.60;99.90
42201;DHT22;27869;51.442;7.540;2022-07-23T01:47:24;16.60;99.90
42201;DHT22;27869;51.442;7.540;2022-07-23T01:49:50;16.60;99.90
42201;DHT22;27869;51.442;7.540;2022-07-23T01:52:17;16.60;99.90
42201;DHT22;27869;51.442;7.540;2022-07-23T01:54:44;16.60;99.90
42201;DHT22;27869;51.442;7.540;2022-07-23T01:57:12;16.60;99.90
42201;DHT22;27869;51.442;7.540;2022-07-23T01:59:39;16.50;99.90
42201;DHT22;27869;51.442;7.540;2022-07-23T02:02:06;16.50;99.90
42201;DHT22;27869;51.442;7.540;2022-07-23T02:04:33;16.50;99.90
42201;DHT22;27869;51.442;7.540;2022-07-23T02:07:03;16.50;99.90
42201;DHT22;27869;51.442;7.540;2022-07-23T02:09:30;16.50;99.90
42201;DHT22;27869;51.442;7.540;2022-07-23T02:11:57;16.40;99.90
42201;DHT22;27869;51.442;7.540;2022-07-23T02:14:26;16.40;99.90
42201;DHT22;27869;51.442;7.540;2022-07-23T02:16:53;16.40;99.90
42201;DHT22;27869;51.442;7.540;2022-07-23T02:19:20;16.40;99.90
42201;DHT22;27869;51.442;7.540;2022-07-23T02:21:47;16.40;99.90
42201;DHT22;27869;51.442;7.540;2022-07-23T02:24:14;16.40;99.90
42201;DHT22;27869;51.442;7.540;2022-07-23T02:26:41;16.40;99.90
42201;DHT22;27869;51.442;7.540;2022-07-23T02:29:09;16.40;99.90
42201;DHT22;27869;51.442;7.540;2022-07-23T02:31:37;16.40;99.90
42201;DHT22;27869;51.442;7.540;2022-07-23T02:34:04;16.40;99.90
42201;DHT22;27869;51.442;7.540;2022-07-23T02:36:31;16.40;99.90
42201;DHT22;27869;51.442;7.540;2022-07-23T02:38:58;16.40;99.90
42201;DHT22;27869;51.442;7.540;2022-07-23T02:41:25;16.40;99.90
42201;DHT22;27869;51.442;7.540;2022-07-23T02:43:52;16.40;99.90
42201;DHT22;27869;51.442;7.540;2022-07-23T02:46:19;16.30;99.90
42201;DHT22;27869;51.442;7.540;2022-07-23T02:48:47;16.30;99.90
42201;DHT22;27869;51.442;7.540;2022-07-23T02:51:14;16.30;99.90
42201;DHT22;27869;51.442;7.540;2022-07-23T02:53:41;16.30;99.90
42201;DHT22;27869;51.442;7.540;2022-07-23T02:56:08;16.30;99.90
42201;DHT22;27869;51.442;7.540;2022-07-23T02:58:35;16.20;99.90
42201;DHT22;27869;51.442;7.540;2022-07-23T03:01:02;16.30;99.90
42201;DHT22;27869;51.442;7.540;2022-07-23T03:03:29;16.20;99.90
42201;DHT22;27869;51.442;7.540;2022-07-23T03:05:57;16.20;99.90
42201;DHT22;27869;51.442;7.540;2022-07-23T03:08:24;16.20;99.90
42201;DHT22;27869;51.442;7.540;2022-07-23T03:10:51;16.20;99.90
42201;DHT22;27869;51.442;7.540;2022-07-23T03:13:19;16.10;99.90
42201;DHT22;27869;51.442;7.540;2022-07-23T03:15:46;16.10;99.90
42201;DHT22;27869;51.442;7.540;2022-07-23T03:18:12;16.10;99.90
42201;DHT22;27869;51.442;7.540;2022-07-23T03:20:39;16.00;99.90
42201;DHT22;27869;51.442;7.540;2022-07-23T03:23:08;16.00;99.90
42201;DHT22;27869;51.442;7.540;2022-07-23T03:25:35;16.00;99.90
42201;DHT22;27869;51.442;7.540;2022-07-23T03:28:01;15.90;99.90
42201;DHT22;27869;51.442;7.540;2022-07-23T03:30:28;15.90;99.90
42201;DHT22;27869;51.442;7.540;2022-07-23T03:32:55;15.90;99.90
42201;DHT22;27869;51.442;7.540;2022-07-23T03:35:22;15.80;99.90
42201;DHT22;27869;51.442;7.540;2022-07-23T03:37:49;15.80;99.90
42201;DHT22;27869;51.442;7.540;2022-07-23T03:40:18;15.80;99.90
42201;DHT22;27869;51.442;7.540;2022-07-23T03:42:44;15.70;99.90
42201;DHT22;27869;51.442;7.540;2022-07-23T03:45:11;15.60;99.90
42201;DHT22;27869;51.442;7.540;2022-07-23T03:47:38;15.60;99.90
42201;DHT22;27869;51.442;7.540;2022-07-23T03:50:06;15.60;99.90
42201;DHT22;27869;51.442;7.540;2022-07-23T03:52:33;15.60;99.90
42201;DHT22;27869;51.442;7.540;2022-07-23T03:55:00;15.60;99.90
42201;DHT22;27869;51.442;7.540;2022-07-23T03:57:29;15.50;99.90
42201;DHT22;27869;51.442;7.540;2022-07-23T03:59:56;15.50;99.90
42201;DHT22;27869;51.442;7.540;2022-07-23T04:02:23;15.40;99.90
42201;DHT22;27869;51.442;7.540;2022-07-23T04:04:51;15.40;99.90
42201;DHT22;27869;51.442;7.540;2022-07-23T04:07:18;15.30;99.90
42201;DHT22;27869;51.442;7.540;2022-07-23T04:09:45;15.30;99.90
42201;DHT22;27869;51.442;7.540;2022-07-23T04:12:11;15.30;99.90
42201;DHT22;27869;51.442;7.540;2022-07-23T04:14:40;15.30;99.90
42201;DHT22;27869;51.442;7.540;2022-07-23T04:17:07;15.30;99.90
42201;DHT22;27869;51.442;7.540;2022-07-23T04:19:34;15.30;99.90
42201;DHT22;27869;51.442;7.540;2022-07-23T04:22:05;15.30;99.90
42201;DHT22;27869;51.442;7.540;2022-07-23T04:24:32;15.30;99.90
42201;DHT22;27869;51.442;7.540;2022-07-23T04:26:59;15.30;99.90
42201;DHT22;27869;51.442;7.540;2022-07-23T04:29:26;15.30;99.90
42201;DHT22;27869;51.442;7.540;2022-07-23T04:31:55;15.40;99.90
42201;DHT22;27869;51.442;7.540;2022-07-23T04:34:22;15.40;99.90
42201;DHT22;27869;51.442;7.540;2022-07-23T04:36:49;15.40;99.90
42201;DHT22;27869;51.442;7.540;2022-07-23T04:39:16;15.40;99.90
42201;DHT22;27869;51.442;7.540;2022-07-23T04:41:43;15.40;99.90
42201;DHT22;27869;51.442;7.540;2022-07-23T04:44:10;15.50;99.90
42201;DHT22;27869;51.442;7.540;2022-07-23T04:46:37;15.50;99.90
42201;DHT22;27869;51.442;7.540;2022-07-23T04:49:05;15.50;99.90
42201;DHT22;27869;51.442;7.540;2022-07-23T04:51:32;15.50;99.90
42201;DHT22;27869;51.442;7.540;2022-07-23T04:53:59;15.60;99.90
42201;DHT22;27869;51.442;7.540;2022-07-23T04:56:26;15.60;99.90
42201;DHT22;27869;51.442;7.540;2022-07-23T04:58:53;15.60;99.90
42201;DHT22;27869;51.442;7.540;2022-07-23T05:01:20;15.60;99.90
42201;DHT22;27869;51.442;7.540;2022-07-23T05:03:46;15.60;99.90
42201;DHT22;27869;51.442;7.540;2022-07-23T05:06:15;15.70;99.90
42201;DHT22;27869;51.442;7.540;2022-07-23T05:08:42;15.70;99.90
42201;DHT22;27869;51.442;7.540;2022-07-23T05:11:09;15.70;99.90
42201;DHT22;27869;51.442;7.540;2022-07-23T05:13:36;15.70;99.90
42201;DHT22;27869;51.442;7.540;2022-07-23T05:16:04;15.80;99.90
42201;DHT22;27869;51.442;7.540;2022-07-23T05:18:31;15.80;99.90
42201;DHT22;27869;51.442;7.540;2022-07-23T05:20:57;15.80;99.90
42201;DHT22;27869;51.442;7.540;2022-07-23T05:23:26;15.70;99.90
42201;DHT22;27869;51.442;7.540;2022-07-23T05:25:53;15.70;99.90
42201;DHT22;27869;51.442;7.540;2022-07-23T05:28:19;15.70;99.90
42201;DHT22;27869;51.442;7.540;2022-07-23T05:30:46;15.70;99.90
42201;DHT22;27869;51.442;7.540;2022-07-23T05:33:13;15.70;99.90
42201;DHT22;27869;51.442;7.540;2022-07-23T05:35:40;15.80;99.90
42201;DHT22;27869;51.442;7.540;2022-07-23T05:38:07;15.80;99.90
42201;DHT22;27869;51.442;7.540;2022-07-23T05:40:35;15.80;99.90
42201;DHT22;27869;51.442;7.540;2022-07-23T05:43:02;15.90;99.90
42201;DHT22;27869;51.442;7.540;2022-07-23T05:45:29;15.90;99.90
42201;DHT22;27869;51.442;7.540;2022-07-23T05:47:56;15.90;99.90
42201;DHT22;27869;51.442;7.540;2022-07-23T05:50:23;15.90;99.90
42201;DHT22;27869;51.442;7.540;2022-07-23T05:52:50;15.90;99.90
42201;DHT22;27869;51.442;7.540;2022-07-23T05:55:17;16.00;99.90
42201;DHT22;27869;51.442;7.540;2022-07-23T05:57:45;16.00;99.90
42201;DHT22;27869;51.442;7.540;2022-07-23T06:00:12;16.00;99.90
42201;DHT22;27869;51.442;7.540;2022-07-23T06:02:39;16.00;99.90
42201;DHT22;27869;51.442;7.540;2022-07-23T06:05:07;16.00;99.90
42201;DHT22;27869;51.442;7.540;2022-07-23T06:07:35;16.10;99.90
42201;DHT22;27869;51.442;7.540;2022-07-23T06:10:02;16.10;99.90
42201;DHT22;27869;51.442;7.540;2022-07-23T06:12:29;16.20;99.90
42201;DHT22;27869;51.442;7.540;2022-07-23T06:14:57;16.20;99.90
42201;DHT22;27869;51.442;7.540;2022-07-23T06:17:24;16.20;99.90
42201;DHT22;27869;51.442;7.540;2022-07-23T06:19:51;16.20;99.90
42201;DHT22;27869;51.442;7.540;2022-07-23T06:22:18;16.20;99.90
42201;DHT22;27869;51.442;7.540;2022-07-23T06:24:45;16.30;99.90
42201;DHT22;27869;51.442;7.540;2022-07-23T06:27:12;16.30;99.90
42201;DHT22;27869;51.442;7.540;2022-07-23T06:29:39;16.40;99.90
42201;DHT22;27869;51.442;7.540;2022-07-23T06:32:08;16.40;99.90
42201;DHT22;27869;51.442;7.540;2022-07-23T06:34:35;16.40;99.90
42201;DHT22;27869;51.442;7.540;2022-07-23T06:37:02;16.40;99.90
42201;DHT22;27869;51.442;7.540;2022-07-23T06:39:29;16.40;99.90
42201;DHT22;27869;51.442;7.540;2022-07-23T06:41:56;16.40;99.90
42201;DHT22;27869;51.442;7.540;2022-07-23T06:44:23;16.50;99.90
42201;DHT22;27869;51.442;7.540;2022-07-23T06:46:50;16.50;99.90
42201;DHT22;27869;51.442;7.540;2022-07-23T06:49:18;16.60;99.90
42201;DHT22;27869;51.442;7.540;2022-07-23T06:51:45;16.70;99.90
42201;DHT22;27869;51.442;7.540;2022-07-23T06:54:12;16.80;99.90
42201;DHT22;27869;51.442;7.540;2022-07-23T06:56:39;16.90;99.90
42201;DHT22;27869;51.442;7.540;2022-07-23T06:59:07;16.90;99.90
42201;DHT22;27869;51.442;7.540;2022-07-23T07:01:34;16.90;99.90
42201;DHT22;27869;51.442;7.540;2022-07-23T07:04:01;16.90;99.90
42201;DHT22;27869;51.442;7.540;2022-07-23T07:06:29;16.90;99.90
42201;DHT22;27869;51.442;7.540;2022-07-23T07:08:56;16.90;99.90
42201;DHT22;27869;51.442;7.540;2022-07-23T07:11:23;16.90;99.90
42201;DHT22;27869;51.442;7.540;2022-07-23T07:13:51;16.90;99.90
42201;DHT22;27869;51.442;7.540;2022-07-23T07:16:18;16.90;99.90
42201;DHT22;27869;51.442;7.540;2022-07-23T07:18:45;17.10;99.90
42201;DHT22;27869;51.442;7.540;2022-07-23T07:21:12;17.20;99.90
42201;DHT22;27869;51.442;7.540;2022-07-23T07:23:40;17.30;99.90
42201;DHT22;27869;51.442;7.540;2022-07-23T07:26:07;17.40;99.90
42201;DHT22;27869;51.442;7.540;2022-07-23T07:28:34;17.50;99.90
42201;DHT22;27869;51.442;7.540;2022-07-23T07:31:01;17.60;99.90
42201;DHT22;27869;51.442;7.540;2022-07-23T07:33:28;17.60;99.90
42201;DHT22;27869;51.442;7.540;2022-07-23T07:35:55;17.60;99.90
42201;DHT22;27869;51.442;7.540;2022-07-23T07:38:22;17.60;99.90
42201;DHT22;27869;51.442;7.540;2022-07-23T07:40:50;17.70;99.90
42201;DHT22;27869;51.442;7.540;2022-07-23T07:43:17;17.60;99.90
42201;DHT22;27869;51.442;7.540;2022-07-23T07:45:44;17.70;99.90
42201;DHT22;27869;51.442;7.540;2022-07-23T07:48:11;17.70;99.90
42201;DHT22;27869;51.442;7.540;2022-07-23T07:50:38;17.70;99.90
42201;DHT22;27869;51.442;7.540;2022-07-23T07:53:05;17.70;99.90
42201;DHT22;27869;51.442;7.540;2022-07-23T07:55:32;17.80;99.90
42201;DHT22;27869;51.442;7.540;2022-07-23T07:58:00;17.80;99.90
42201;DHT22;27869;51.442;7.540;2022-07-23T08:00:27;17.80;99.90
42201;DHT22;27869;51.442;7.540;2022-07-23T08:02:54;17.80;99.90
42201;DHT22;27869;51.442;7.540;2022-07-23T08:05:23;17.80;99.90
42201;DHT22;27869;51.442;7.540;2022-07-23T08:07:50;17.90;99.90
42201;DHT22;27869;51.442;7.540;2022-07-23T08:10:18;18.10;99.90
42201;DHT22;27869;51.442;7.540;2022-07-23T08:12:46;18.30;99.90
42201;DHT22;27869;51.442;7.540;2022-07-23T08:15:16;18.50;99.90
42201;DHT22;27869;51.442;7.540;2022-07-23T08:17:43;18.70;99.90
42201;DHT22;27869;51.442;7.540;2022-07-23T08:20:13;18.80;99.90
42201;DHT22;27869;51.442;7.540;2022-07-23T08:22:44;18.90;99.90
42201;DHT22;27869;51.442;7.540;2022-07-23T08:25:13;19.00;99.90
42201;DHT22;27869;51.442;7.540;2022-07-23T08:27:39;19.10;99.90
42201;DHT22;27869;51.442;7.540;2022-07-23T08:30:07;19.30;99.90
42201;DHT22;27869;51.442;7.540;2022-07-23T08:32:52;19.40;99.90
42201;DHT22;27869;51.442;7.540;2022-07-23T08:35:23;19.60;99.90
42201;DHT22;27869;51.442;7.540;2022-07-23T08:37:51;19.70;99.90
42201;DHT22;27869;51.442;7.540;2022-07-23T08:40:18;19.70;99.90
42201;DHT22;27869;51.442;7.540;2022-07-23T08:42:47;19.70;99.90
42201;DHT22;27869;51.442;7.540;2022-07-23T08:45:16;19.70;99.90
42201;DHT22;27869;51.442;7.540;2022-07-23T08:47:43;19.90;99.90
42201;DHT22;27869;51.442;7.540;2022-07-23T08:50:12;20.00;99.90
42201;DHT22;27869;51.442;7.540;2022-07-23T08:52:40;20.10;99.90
42201;DHT22;27869;51.442;7.540;2022-07-23T08:55:07;20.30;99.90
42201;DHT22;27869;51.442;7.540;2022-07-23T08:57:35;20.50;99.90
42201;DHT22;27869;51.442;7.540;2022-07-23T09:00:03;20.60;99.90
42201;DHT22;27869;51.442;7.540;2022-07-23T09:02:30;20.60;99.90
42201;DHT22;27869;51.442;7.540;2022-07-23T09:04:57;20.60;99.90
42201;DHT22;27869;51.442;7.540;2022-07-23T09:07:25;20.60;99.90
42201;DHT22;27869;51.442;7.540;2022-07-23T09:10:06;20.70;99.90
42201;DHT22;27869;51.442;7.540;2022-07-23T09:12:33;20.70;99.90
42201;DHT22;27869;51.442;7.540;2022-07-23T09:15:04;20.70;99.90
42201;DHT22;27869;51.442;7.540;2022-07-23T09:17:37;20.80;99.90
42201;DHT22;27869;51.442;7.540;2022-07-23T09:20:10;20.90;99.90
42201;DHT22;27869;51.442;7.540;2022-07-23T09:22:38;21.20;99.90
42201;DHT22;27869;51.442;7.540;2022-07-23T09:25:09;21.50;99.90
42201;DHT22;27869;51.442;7.540;2022-07-23T09:27:48;21.50;99.90
42201;DHT22;27869;51.442;7.540;2022-07-23T09:30:15;21.40;99.90
42201;DHT22;27869;51.442;7.540;2022-07-23T09:32:42;21.40;99.90
42201;DHT22;27869;51.442;7.540;2022-07-23T09:35:10;21.40;99.90
42201;DHT22;27869;51.442;7.540;2022-07-23T09:37:38;21.40;99.90
42201;DHT22;27869;51.442;7.540;2022-07-23T09:40:07;21.50;99.90
42201;DHT22;27869;51.442;7.540;2022-07-23T09:42:35;21.60;99.90
42201;DHT22;27869;51.442;7.540;2022-07-23T09:45:02;21.90;99.90
42201;DHT22;27869;51.442;7.540;2022-07-23T09:47:31;22.20;99.90
42201;DHT22;27869;51.442;7.540;2022-07-23T09:50:00;22.50;99.90
42201;DHT22;27869;51.442;7.540;2022-07-23T09:52:28;22.60;99.90
42201;DHT22;27869;51.442;7.540;2022-07-23T09:55:01;22.70;99.90
42201;DHT22;27869;51.442;7.540;2022-07-23T09:57:28;22.80;99.90
42201;DHT22;27869;51.442;7.540;2022-07-23T10:00:00;23.00;99.90
42201;DHT22;27869;51.442;7.540;2022-07-23T10:02:28;23.00;99.90
42201;DHT22;27869;51.442;7.540;2022-07-23T10:04:58;23.00;99.90
42201;DHT22;27869;51.442;7.540;2022-07-23T10:07:26;23.10;99.90
42201;DHT22;27869;51.442;7.540;2022-07-23T10:09:56;23.20;99.90
42201;DHT22;27869;51.442;7.540;2022-07-23T10:12:25;23.40;99.90
42201;DHT22;27869;51.442;7.540;2022-07-23T10:15:10;23.40;99.90
42201;DHT22;27869;51.442;7.540;2022-07-23T10:17:37;23.30;99.90
42201;DHT22;27869;51.442;7.540;2022-07-23T10:20:04;23.30;99.90
42201;DHT22;27869;51.442;7.540;2022-07-23T10:22:34;23.40;99.90
42201;DHT22;27869;51.442;7.540;2022-07-23T10:25:12;23.60;99.90
42201;DHT22;27869;51.442;7.540;2022-07-23T10:27:58;23.80;99.90
42201;DHT22;27869;51.442;7.540;2022-07-23T10:30:36;23.90;99.90
42201;DHT22;27869;51.442;7.540;2022-07-23T10:33:27;24.10;99.90
42201;DHT22;27869;51.442;7.540;2022-07-23T10:36:04;24.20;99.90
42201;DHT22;27869;51.442;7.540;2022-07-23T10:38:40;24.30;99.90
42201;DHT22;27869;51.442;7.540;2022-07-23T10:41:09;24.40;99.90
42201;DHT22;27869;51.442;7.540;2022-07-23T10:43:38;24.60;99.90
42201;DHT22;27869;51.442;7.540;2022-07-23T10:46:22;24.80;99.90
42201;DHT22;27869;51.442;7.540;2022-07-23T10:49:20;25.10;99.90
42201;DHT22;27869;51.442;7.540;2022-07-23T10:52:18;25.30;99.90
42201;DHT22;27869;51.442;7.540;2022-07-23T10:54:47;25.50;99.90
42201;DHT22;27869;51.442;7.540;2022-07-23T10:57:16;25.40;99.90
42201;DHT22;27869;51.442;7.540;2022-07-23T11:00:16;25.40;99.90
42201;DHT22;27869;51.442;7.540;2022-07-23T11:02:47;25.30;99.90
42201;DHT22;27869;51.442;7.540;2022-07-23T11:05:16;25.30;99.90
42201;DHT22;27869;51.442;7.540;2022-07-23T11:10:31;25.40;99.20
42201;DHT22;27869;51.442;7.540;2022-07-23T11:13:31;25.60;97.50
42201;DHT22;27869;51.442;7.540;2022-07-23T11:19:03;25.80;99.90
42201;DHT22;27869;51.442;7.540;2022-07-23T11:21:50;25.90;99.60
42201;DHT22;27869;51.442;7.540;2022-07-23T11:24:18;26.00;98.70
42201;DHT22;27869;51.442;7.540;2022-07-23T11:26:54;26.10;97.90
42201;DHT22;27869;51.442;7.540;2022-07-23T11:29:48;26.20;99.90
42201;DHT22;27869;51.442;7.540;2022-07-23T11:32:33;26.40;96.90
42201;DHT22;27869;51.442;7.540;2022-07-23T11:35:02;26.60;99.90
42201;DHT22;27869;51.442;7.540;2022-07-23T11:37:32;26.70;99.60
42201;DHT22;27869;51.442;7.540;2022-07-23T11:40:00;26.50;96.20
42201;DHT22;27869;51.442;7.540;2022-07-23T11:42:27;26.40;99.90
42201;DHT22;27869;51.442;7.540;2022-07-23T11:44:54;26.40;99.90
42201;DHT22;27869;51.442;7.540;2022-07-23T11:47:24;26.40;99.30
42201;DHT22;27869;51.442;7.540;2022-07-23T11:49:55;26.40;98.90
42201;DHT22;27869;51.442;7.540;2022-07-23T11:52:23;26.40;97.90
42201;DHT22;27869;51.442;7.540;2022-07-23T11:54:53;26.30;97.70
42201;DHT22;27869;51.442;7.540;2022-07-23T11:57:24;26.30;98.90
42201;DHT22;27869;51.442;7.540;2022-07-23T11:59:53;26.30;98.30
42201;DHT22;27869;51.442;7.540;2022-07-23T12:02:23;26.30;97.30
42201;DHT22;27869;51.442;7.540;2022-07-23T12:04:51;26.20;96.60
42201;DHT22;27869;51.442;7.540;2022-07-23T12:07:26;26.20;97.30
42201;DHT22;27869;51.442;7.540;2022-07-23T12:09:53;26.10;95.70
42201;DHT22;27869;51.442;7.540;2022-07-23T12:12:21;26.00;94.80
42201;DHT22;27869;51.442;7.540;2022-07-23T12:14:50;25.90;96.10
42201;DHT22;27869;51.442;7.540;2022-07-23T12:17:17;25.90;96.10
42201;DHT22;27869;51.442;7.540;2022-07-23T12:19:46;25.80;95.60
42201;DHT22;27869;51.442;7.540;2022-07-23T12:22:13;25.80;95.70
42201;DHT22;27869;51.442;7.540;2022-07-23T12:24:54;25.80;95.80
42201;DHT22;27869;51.442;7.540;2022-07-23T12:27:21;25.70;94.80
42201;DHT22;27869;51.442;7.540;2022-07-23T12:29:49;25.60;93.70
42201;DHT22;27869;51.442;7.540;2022-07-23T12:32:23;25.50;96.20
42201;DHT22;27869;51.442;7.540;2022-07-23T12:35:03;25.50;95.10
42201;DHT22;27869;51.442;7.540;2022-07-23T12:37:32;25.40;95.30
42201;DHT22;27869;51.442;7.540;2022-07-23T12:43:05;25.30;91.80
42201;DHT22;27869;51.442;7.540;2022-07-23T12:45:56;25.30;94.80
42201;DHT22;27869;51.442;7.540;2022-07-23T12:48:25;25.40;92.60
42201;DHT22;27869;51.442;7.540;2022-07-23T12:50:58;25.40;94.00
42201;DHT22;27869;51.442;7.540;2022-07-23T12:53:27;25.40;93.90
42201;DHT22;27869;51.442;7.540;2022-07-23T12:56:01;25.40;94.30
42201;DHT22;27869;51.442;7.540;2022-07-23T12:58:40;25.30;93.80
42201;DHT22;27869;51.442;7.540;2022-07-23T13:01:07;25.30;94.00
42201;DHT22;27869;51.442;7.540;2022-07-23T13:03:37;25.30;93.40
42201;DHT22;27869;51.442;7.540;2022-07-23T13:06:07;25.20;94.20
42201;DHT22;27869;51.442;7.540;2022-07-23T13:08:35;25.20;93.80
42201;DHT22;27869;51.442;7.540;2022-07-23T13:11:05;25.20;94.10
42201;DHT22;27869;51.442;7.540;2022-07-23T13:13:33;25.10;93.30
42201;DHT22;27869;51.442;7.540;2022-07-23T13:16:01;25.00;94.10
42201;DHT22;27869;51.442;7.540;2022-07-23T13:18:29;25.00;94.00
42201;DHT22;27869;51.442;7.540;2022-07-23T13:20:56;24.90;93.90
42201;DHT22;27869;51.442;7.540;2022-07-23T13:23:25;24.80;92.30
42201;DHT22;27869;51.442;7.540;2022-07-23T13:25:52;24.70;93.30
42201;DHT22;27869;51.442;7.540;2022-07-23T13:28:21;24.70;93.80
42201;DHT22;27869;51.442;7.540;2022-07-23T13:30:49;24.60;93.90
42201;DHT22;27869;51.442;7.540;2022-07-23T13:33:17;24.60;94.00
42201;DHT22;27869;51.442;7.540;2022-07-23T13:35:44;24.60;93.50
42201;DHT22;27869;51.442;7.540;2022-07-23T13:38:11;24.60;94.30
42201;DHT22;27869;51.442;7.540;2022-07-23T13:40:41;24.60;93.80
42201;DHT22;27869;51.442;7.540;2022-07-23T13:43:09;24.60;93.50
42201;DHT22;27869;51.442;7.540;2022-07-23T13:45:36;24.50;94.10
42201;DHT22;27869;51.442;7.540;2022-07-23T13:48:04;24.40;93.70
42201;DHT22;27869;51.442;7.540;2022-07-23T13:50:31;24.40;94.20
42201;DHT22;27869;51.442;7.540;2022-07-23T13:53:01;24.40;94.70
42201;DHT22;27869;51.442;7.540;2022-07-23T13:55:28;24.40;94.60
42201;DHT22;27869;51.442;7.540;2022-07-23T13:57:56;24.40;94.40
42201;DHT22;27869;51.442;7.540;2022-07-23T14:00:23;24.30;94.90
42201;DHT22;27869;51.442;7.540;2022-07-23T14:02:50;24.30;95.50
42201;DHT22;27869;51.442;7.540;2022-07-23T14:05:17;24.30;95.10
42201;DHT22;27869;51.442;7.540;2022-07-23T14:07:44;24.30;94.90
42201;DHT22;27869;51.442;7.540;2022-07-23T14:10:12;24.30;93.60
42201;DHT22;27869;51.442;7.540;2022-07-23T14:12:39;24.30;94.10
42201;DHT22;27869;51.442;7.540;2022-07-23T14:15:08;24.30;94.50
42201;DHT22;27869;51.442;7.540;2022-07-23T14:17:38;24.30;93.80
42201;DHT22;27869;51.442;7.540;2022-07-23T14:20:07;24.30;94.20
42201;DHT22;27869;51.442;7.540;2022-07-23T14:22:34;24.20;93.70
42201;DHT22;27869;51.442;7.540;2022-07-23T14:25:01;24.10;93.80
42201;DHT22;27869;51.442;7.540;2022-07-23T14:27:29;24.10;93.20
42201;DHT22;27869;51.442;7.540;2022-07-23T14:29:56;24.00;92.40
42201;DHT22;27869;51.442;7.540;2022-07-23T14:32:24;23.90;93.20
42201;DHT22;27869;51.442;7.540;2022-07-23T14:34:51;23.90;93.80
42201;DHT22;27869;51.442;7.540;2022-07-23T14:37:19;23.90;93.90
42201;DHT22;27869;51.442;7.540;2022-07-23T14:39:47;23.90;94.50
42201;DHT22;27869;51.442;7.540;2022-07-23T14:42:13;23.90;93.70
42201;DHT22;27869;51.442;7.540;2022-07-23T14:44:40;23.90;94.00
42201;DHT22;27869;51.442;7.540;2022-07-23T14:47:08;24.00;93.80
42201;DHT22;27869;51.442;7.540;2022-07-23T14:49:37;24.00;93.30
42201;DHT22;27869;51.442;7.540;2022-07-23T14:52:05;24.00;93.60
42201;DHT22;27869;51.442;7.540;2022-07-23T14:54:33;24.00;93.90
42201;DHT22;27869;51.442;7.540;2022-07-23T14:57:01;24.00;94.10
42201;DHT22;27869;51.442;7.540;2022-07-23T14:59:29;24.00;94.50
42201;DHT22;27869;51.442;7.540;2022-07-23T15:01:57;23.90;93.40
42201;DHT22;27869;51.442;7.540;2022-07-23T15:04:24;23.90;93.40
42201;DHT22;27869;51.442;7.540;2022-07-23T15:06:52;23.80;93.50
42201;DHT22;27869;51.442;7.540;2022-07-23T15:09:20;23.90;93.50
42201;DHT22;27869;51.442;7.540;2022-07-23T15:11:47;23.90;93.00
42201;DHT22;27869;51.442;7.540;2022-07-23T15:14:13;23.90;93.20
42201;DHT22;27869;51.442;7.540;2022-07-23T15:16:40;24.00;93.40
42201;DHT22;27869;51.442;7.540;2022-07-23T15:19:07;24.00;93.00
42201;DHT22;27869;51.442;7.540;2022-07-23T15:21:34;24.10;94.00
42201;DHT22;27869;51.442;7.540;2022-07-23T15:24:03;24.00;93.40
42201;DHT22;27869;51.442;7.540;2022-07-23T15:26:30;24.00;93.40
42201;DHT22;27869;51.442;7.540;2022-07-23T15:28:57;24.00;93.50
42201;DHT22;27869;51.442;7.540;2022-07-23T15:31:25;24.00;93.10
42201;DHT22;27869;51.442;7.540;2022-07-23T15:33:52;24.10;92.90
42201;DHT22;27869;51.442;7.540;2022-07-23T15:36:19;24.10;93.00
42201;DHT22;27869;51.442;7.540;2022-07-23T15:38:47;24.10;92.90
42201;DHT22;27869;51.442;7.540;2022-07-23T15:41:15;24.20;93.10
42201;DHT22;27869;51.442;7.540;2022-07-23T15:43:42;24.20;92.70
42201;DHT22;27869;51.442;7.540;2022-07-23T15:46:09;24.10;92.30
42201;DHT22;27869;51.442;7.540;2022-07-23T15:48:37;24.10;92.30